sensor_id;sensor_type;location;lat;lon;timestamp;pressure;altitude;pressure_sealevel;temperature;humidity
69879;BME280;57161;43.136;24.706;2024-03-23T00:54:35;99337.44;;;4.03;71.08
69879;BME280;57161;43.136;24.706;2024-03-23T00:57:01;99333.22;;;4.07;70.34
69879;BME280;57161;43.136;24.706;2024-03-23T00:59:27;99322.53;;;3.83;70.85
69879;BME280;57161;43.136;24.706;2024-03-23T01:01:54;99332.91;;;3.94;70.84
69879;BME280;57161;43.136;24.706;2024-03-23T01:04:20;99327.59;;;3.90;71.13
69879;BME280;57161;43.136;24.706;2024-03-23T01:06:45;99334.66;;;3.91;71.53
69879;BME280;57161;43.136;24.706;2024-03-23T01:09:11;99322.88;;;4.02;70.90
69879;BME280;57161;43.136;24.706;2024-03-23T01:11:37;99329.97;;;4.09;70.64
69879;BME280;57161;43.136;24.706;2024-03-23T01:14:03;99323.13;;;4.04;70.73
69879;BME280;57161;43.136;24.706;2024-03-23T01:16:28;99319.59;;;4.04;70.59
69879;BME280;57161;43.136;24.706;2024-03-23T01:18:54;99326.88;;;4.01;70.84
69879;BME280;57161;43.136;24.706;2024-03-23T01:21:19;99326.81;;;3.90;71.24
69879;BME280;57161;43.136;24.706;2024-03-23T01:23:44;99332.63;;;3.92;71.38
69879;BME280;57161;43.136;24.706;2024-03-23T01:26:10;99322.34;;;3.98;71.34
69879;BME280;57161;43.136;24.706;2024-03-23T01:28:35;99321.63;;;4.03;71.02
69879;BME280;57161;43.136;24.706;2024-03-23T01:31:02;99323.16;;;4.10;70.47
69879;BME280;57161;43.136;24.706;2024-03-23T01:33:27;99308.03;;;4.00;70.09
69879;BME280;57161;43.136;24.706;2024-03-23T01:35:53;99324.44;;;4.09;70.10
69879;BME280;57161;43.136;24.706;2024-03-23T01:38:18;99310.28;;;4.01;70.30
69879;BME280;57161;43.136;24.706;2024-03-23T01:40:43;99307.28;;;3.99;70.37
69879;BME280;57161;43.136;24.706;2024-03-23T01:43:09;99310.78;;;3.94;70.52
69879;BME280;57161;43.136;24.706;2024-03-23T01:45:35;99313.81;;;3.96;70.48
69879;BME280;57161;43.136;24.706;2024-03-23T01:48:01;99312.56;;;4.03;70.59
69879;BME280;57161;43.136;24.706;2024-03-23T01:50:27;99292.44;;;3.91;70.28
69879;BME280;57161;43.136;24.706;2024-03-23T01:52:53;99315.50;;;3.88;70.71
69879;BME280;57161;43.136;24.706;2024-03-23T01:55:20;99314.81;;;3.93;70.48
69879;BME280;57161;43.136;24.706;2024-03-23T01:57:45;99323.09;;;3.93;70.56
69879;BME280;57161;43.136;24.706;2024-03-23T02:00:11;99310.53;;;3.92;70.23
69879;BME280;57161;43.136;24.706;2024-03-23T02:02:55;99321.63;;;4.03;70.00
69879;BME280;57161;43.136;24.706;2024-03-23T02:05:21;99314.06;;;4.04;70.16
69879;BME280;57161;43.136;24.706;2024-03-23T02:07:47;99309.84;;;4.08;69.64
69879;BME280;57161;43.136;24.706;2024-03-23T02:10:13;99323.72;;;4.25;69.40
69879;BME280;57161;43.136;24.706;2024-03-23T02:12:40;99323.19;;;4.21;69.53
69879;BME280;57161;43.136;24.706;2024-03-23T02:15:05;99307.59;;;4.12;69.16
69879;BME280;57161;43.136;24.706;2024-03-23T02:17:34;99319.47;;;4.35;68.79
69879;BME280;57161;43.136;24.706;2024-03-23T02:20:00;99306.88;;;4.29;68.64
69879;BME280;57161;43.136;24.706;2024-03-23T02:22:39;99309.66;;;4.34;68.17
69879;BME280;57161;43.136;24.706;2024-03-23T02:25:05;99313.94;;;4.30;68.44
69879;BME280;57161;43.136;24.706;2024-03-23T02:27:32;99318.22;;;4.36;67.92
69879;BME280;57161;43.136;24.706;2024-03-23T02:29:58;99304.88;;;4.29;67.66
69879;BME280;57161;43.136;24.706;2024-03-23T02:32:23;99308.84;;;4.17;68.27
69879;BME280;57161;43.136;24.706;2024-03-23T02:34:49;99304.81;;;4.12;68.43
69879;BME280;57161;43.136;24.706;2024-03-23T02:37:14;99309.03;;;4.02;68.84
69879;BME280;57161;43.136;24.706;2024-03-23T02:39:40;99301.69;;;3.88;69.31
69879;BME280;57161;43.136;24.706;2024-03-23T02:42:05;99306.19;;;3.80;69.60
69879;BME280;57161;43.136;24.706;2024-03-23T02:44:31;99310.63;;;3.66;70.10
69879;BME280;57161;43.136;24.706;2024-03-23T02:46:56;99293.19;;;3.49;70.05
69879;BME280;57161;43.136;24.706;2024-03-23T02:49:22;99299.94;;;3.42;70.65
69879;BME280;57161;43.136;24.706;2024-03-23T02:51:47;99310.38;;;3.27;71.33
69879;BME280;57161;43.136;24.706;2024-03-23T02:54:14;99303.75;;;3.13;71.44
69879;BME280;57161;43.136;24.706;2024-03-23T02:56:40;99295.13;;;3.00;72.24
69879;BME280;57161;43.136;24.706;2024-03-23T02:59:05;99287.44;;;2.84;72.57
69879;BME280;57161;43.136;24.706;2024-03-23T03:01:31;99284.47;;;2.87;72.72
69879;BME280;57161;43.136;24.706;2024-03-23T03:03:56;99290.22;;;2.84;72.73
69879;BME280;57161;43.136;24.706;2024-03-23T03:06:25;99303.28;;;2.89;73.14
69879;BME280;57161;43.136;24.706;2024-03-23T03:08:50;99299.78;;;2.88;73.34
69879;BME280;57161;43.136;24.706;2024-03-23T03:11:16;99294.97;;;2.83;73.55
69879;BME280;57161;43.136;24.706;2024-03-23T03:13:41;99298.97;;;2.82;73.48
69879;BME280;57161;43.136;24.706;2024-03-23T03:16:10;99285.41;;;2.79;73.50
69879;BME280;57161;43.136;24.706;2024-03-23T03:18:36;99304.06;;;2.89;73.65
69879;BME280;57161;43.136;24.706;2024-03-23T03:21:01;99302.72;;;2.79;73.73
69879;BME280;57161;43.136;24.706;2024-03-23T03:23:27;99292.81;;;2.67;74.09
69879;BME280;57161;43.136;24.706;2024-03-23T03:25:53;99305.97;;;2.78;73.75
69879;BME280;57161;43.136;24.706;2024-03-23T03:28:19;99298.72;;;2.80;73.40
69879;BME280;57161;43.136;24.706;2024-03-23T03:30:45;99307.25;;;2.82;73.35
69879;BME280;57161;43.136;24.706;2024-03-23T03:33:10;99311.25;;;2.81;73.14
69879;BME280;57161;43.136;24.706;2024-03-23T03:35:36;99309.97;;;2.77;73.68
69879;BME280;57161;43.136;24.706;2024-03-23T03:38:04;99302.88;;;2.70;73.80
69879;BME280;57161;43.136;24.706;2024-03-23T03:40:29;99295.03;;;2.63;73.61
69879;BME280;57161;43.136;24.706;2024-03-23T03:42:55;99287.31;;;2.67;73.46
69879;BME280;57161;43.136;24.706;2024-03-23T03:45:21;99303.91;;;2.72;73.57
69879;BME280;57161;43.136;24.706;2024-03-23T03:47:47;99302.75;;;2.59;73.65
69879;BME280;57161;43.136;24.706;2024-03-23T03:50:12;99300.28;;;2.61;74.03
69879;BME280;57161;43.136;24.706;2024-03-23T03:52:38;99296.00;;;2.60;73.72
69879;BME280;57161;43.136;24.706;2024-03-23T03:55:03;99295.41;;;2.50;73.90
69879;BME280;57161;43.136;24.706;2024-03-23T03:57:36;99277.63;;;2.51;73.74
69879;BME280;57161;43.136;24.706;2024-03-23T04:00:02;99290.47;;;2.60;73.56
69879;BME280;57161;43.136;24.706;2024-03-23T04:02:28;99290.16;;;2.52;73.56
69879;BME280;57161;43.136;24.706;2024-03-23T04:04:54;99287.38;;;2.47;73.70
69879;BME280;57161;43.136;24.706;2024-03-23T04:07:19;99285.50;;;2.38;74.00
69879;BME280;57161;43.136;24.706;2024-03-23T04:09:48;99288.75;;;2.36;74.24
69879;BME280;57161;43.136;24.706;2024-03-23T04:12:14;99292.22;;;2.31;74.51
69879;BME280;57161;43.136;24.706;2024-03-23T04:14:39;99289.38;;;2.26;74.77
69879;BME280;57161;43.136;24.706;2024-03-23T04:17:05;99294.81;;;2.40;74.20
69879;BME280;57161;43.136;24.706;2024-03-23T04:19:30;99280.75;;;2.38;74.07
69879;BME280;57161;43.136;24.706;2024-03-23T04:21:56;99274.25;;;2.41;74.04
69879;BME280;57161;43.136;24.706;2024-03-23T04:24:21;99285.63;;;2.49;74.10
69879;BME280;57161;43.136;24.706;2024-03-23T04:26:47;99292.94;;;2.52;73.77
69879;BME280;57161;43.136;24.706;2024-03-23T04:29:13;99289.72;;;2.59;73.64
69879;BME280;57161;43.136;24.706;2024-03-23T04:31:39;99277.00;;;2.41;73.52
69879;BME280;57161;43.136;24.706;2024-03-23T04:34:04;99272.81;;;2.46;73.45
69879;BME280;57161;43.136;24.706;2024-03-23T04:36:30;99283.69;;;2.55;73.17
69879;BME280;57161;43.136;24.706;2024-03-23T04:38:57;99296.28;;;2.62;72.95
69879;BME280;57161;43.136;24.706;2024-03-23T04:41:23;99280.00;;;2.64;72.50
69879;BME280;57161;43.136;24.706;2024-03-23T04:43:48;99275.66;;;2.57;72.06
69879;BME280;57161;43.136;24.706;2024-03-23T04:46:14;99279.34;;;2.75;71.81
69879;BME280;57161;43.136;24.706;2024-03-23T04:48:40;99274.63;;;2.81;71.42
69879;BME280;57161;43.136;24.706;2024-03-23T04:51:06;99265.84;;;2.77;71.67
69879;BME280;57161;43.136;24.706;2024-03-23T04:53:31;99269.38;;;2.83;71.10
69879;BME280;57161;43.136;24.706;2024-03-23T04:55:58;99294.03;;;2.92;71.21
69879;BME280;57161;43.136;24.706;2024-03-23T04:58:27;99269.88;;;2.81;71.56
69879;BME280;57161;43.136;24.706;2024-03-23T05:00:54;99265.41;;;2.89;70.96
69879;BME280;57161;43.136;24.706;2024-03-23T05:03:20;99280.06;;;3.01;70.81
69879;BME280;57161;43.136;24.706;2024-03-23T05:05:47;99287.63;;;3.06;70.54
69879;BME280;57161;43.136;24.706;2024-03-23T05:08:12;99288.97;;;3.16;70.57
69879;BME280;57161;43.136;24.706;2024-03-23T05:10:38;99268.84;;;3.10;70.46
69879;BME280;57161;43.136;24.706;2024-03-23T05:13:03;99286.56;;;3.29;70.49
69879;BME280;57161;43.136;24.706;2024-03-23T05:15:29;99291.94;;;3.44;69.59
69879;BME280;57161;43.136;24.706;2024-03-23T05:17:55;99281.69;;;3.56;69.51
69879;BME280;57161;43.136;24.706;2024-03-23T05:20:21;99288.78;;;3.68;68.59
69879;BME280;57161;43.136;24.706;2024-03-23T05:22:46;99292.59;;;3.76;68.45
69879;BME280;57161;43.136;24.706;2024-03-23T05:25:12;99279.03;;;3.78;68.27
69879;BME280;57161;43.136;24.706;2024-03-23T05:27:37;99283.91;;;3.95;67.91
69879;BME280;57161;43.136;24.706;2024-03-23T05:30:03;99287.00;;;4.19;66.55
69879;BME280;57161;43.136;24.706;2024-03-23T05:32:31;99297.53;;;4.20;66.61
69879;BME280;57161;43.136;24.706;2024-03-23T05:34:56;99277.47;;;4.26;66.26
69879;BME280;57161;43.136;24.706;2024-03-23T05:37:22;99292.59;;;4.41;65.98
69879;BME280;57161;43.136;24.706;2024-03-23T05:39:48;99285.06;;;4.53;65.48
69879;BME280;57161;43.136;24.706;2024-03-23T05:42:17;99288.34;;;4.63;65.42
69879;BME280;57161;43.136;24.706;2024-03-23T05:44:46;99286.84;;;4.67;65.47
69879;BME280;57161;43.136;24.706;2024-03-23T05:47:12;99284.84;;;4.85;64.93
69879;BME280;57161;43.136;24.706;2024-03-23T05:49:42;99278.31;;;4.93;64.96
69879;BME280;57161;43.136;24.706;2024-03-23T05:52:09;99278.06;;;5.08;64.31
69879;BME280;57161;43.136;24.706;2024-03-23T05:54:35;99285.63;;;5.24;63.62
69879;BME280;57161;43.136;24.706;2024-03-23T05:57:00;99280.78;;;5.36;63.29
69879;BME280;57161;43.136;24.706;2024-03-23T05:59:26;99276.78;;;5.42;62.63
69879;BME280;57161;43.136;24.706;2024-03-23T06:01:52;99276.00;;;5.53;62.25
69879;BME280;57161;43.136;24.706;2024-03-23T06:04:17;99270.91;;;5.63;61.82
69879;BME280;57161;43.136;24.706;2024-03-23T06:06:43;99253.50;;;5.68;61.27
69879;BME280;57161;43.136;24.706;2024-03-23T06:09:09;99267.06;;;5.88;61.45
69879;BME280;57161;43.136;24.706;2024-03-23T06:11:34;99261.16;;;6.14;60.84
69879;BME280;57161;43.136;24.706;2024-03-23T06:14:00;99267.91;;;6.30;60.64
69879;BME280;57161;43.136;24.706;2024-03-23T06:16:25;99266.50;;;6.53;59.38
69879;BME280;57161;43.136;24.706;2024-03-23T06:18:52;99267.69;;;6.63;59.15
69879;BME280;57161;43.136;24.706;2024-03-23T06:21:18;99263.53;;;6.81;59.09
69879;BME280;57161;43.136;24.706;2024-03-23T06:23:44;99250.22;;;7.04;57.86
69879;BME280;57161;43.136;24.706;2024-03-23T06:26:17;99258.06;;;7.30;57.04
69879;BME280;57161;43.136;24.706;2024-03-23T06:28:43;99265.66;;;7.54;56.33
69879;BME280;57161;43.136;24.706;2024-03-23T06:31:09;99255.09;;;7.71;55.85
69879;BME280;57161;43.136;24.706;2024-03-23T06:33:35;99256.88;;;7.93;54.72
69879;BME280;57161;43.136;24.706;2024-03-23T06:36:01;99256.28;;;8.00;54.57
69879;BME280;57161;43.136;24.706;2024-03-23T06:38:27;99253.28;;;8.17;54.32
69879;BME280;57161;43.136;24.706;2024-03-23T06:40:52;99256.91;;;8.31;54.21
69879;BME280;57161;43.136;24.706;2024-03-23T06:43:18;99243.31;;;8.46;53.90
69879;BME280;57161;43.136;24.706;2024-03-23T06:45:44;99253.50;;;8.57;53.38
69879;BME280;57161;43.136;24.706;2024-03-23T06:48:09;99245.88;;;8.76;52.79
69879;BME280;57161;43.136;24.706;2024-03-23T06:50:35;99245.69;;;8.87;52.78
69879;BME280;57161;43.136;24.706;2024-03-23T06:53:01;99244.50;;;9.15;52.02
69879;BME280;57161;43.136;24.706;2024-03-23T06:55:28;99247.41;;;9.36;51.39
69879;BME280;57161;43.136;24.706;2024-03-23T06:57:53;99238.63;;;9.58;50.13
69879;BME280;57161;43.136;24.706;2024-03-23T07:00:19;99229.50;;;9.71;49.55
69879;BME280;57161;43.136;24.706;2024-03-23T07:02:44;99238.50;;;9.90;48.76
69879;BME280;57161;43.136;24.706;2024-03-23T07:05:10;99228.28;;;10.06;48.51
69879;BME280;57161;43.136;24.706;2024-03-23T07:07:37;99234.44;;;10.38;47.23
69879;BME280;57161;43.136;24.706;2024-03-23T07:10:04;99216.28;;;10.45;47.44
69879;BME280;57161;43.136;24.706;2024-03-23T07:12:30;99229.88;;;10.62;47.51
69879;BME280;57161;43.136;24.706;2024-03-23T07:14:55;99223.00;;;10.83;47.05
69879;BME280;57161;43.136;24.706;2024-03-23T07:17:21;99210.09;;;11.01;46.34
69879;BME280;57161;43.136;24.706;2024-03-23T07:19:46;99223.28;;;11.22;45.93
69879;BME280;57161;43.136;24.706;2024-03-23T07:22:12;99209.66;;;11.18;45.88
69879;BME280;57161;43.136;24.706;2024-03-23T07:24:38;99220.16;;;11.54;45.32
69879;BME280;57161;43.136;24.706;2024-03-23T07:27:04;99217.06;;;11.65;44.97
69879;BME280;57161;43.136;24.706;2024-03-23T07:29:30;99214.81;;;11.99;43.46
69879;BME280;57161;43.136;24.706;2024-03-23T07:31:55;99200.69;;;12.05;43.13
69879;BME280;57161;43.136;24.706;2024-03-23T07:34:21;99215.50;;;12.28;42.06
69879;BME280;57161;43.136;24.706;2024-03-23T07:36:46;99210.50;;;12.42;42.42
69879;BME280;57161;43.136;24.706;2024-03-23T07:39:12;99199.66;;;12.46;42.25
69879;BME280;57161;43.136;24.706;2024-03-23T07:41:37;99210.56;;;12.80;41.14
69879;BME280;57161;43.136;24.706;2024-03-23T07:44:03;99207.78;;;13.03;40.31
69879;BME280;57161;43.136;24.706;2024-03-23T07:46:28;99196.94;;;13.07;40.08
69879;BME280;57161;43.136;24.706;2024-03-23T07:48:54;99194.28;;;13.17;38.60
69879;BME280;57161;43.136;24.706;2024-03-23T07:51:23;99208.13;;;13.45;37.48
69879;BME280;57161;43.136;24.706;2024-03-23T07:53:48;99203.44;;;13.56;37.31
69879;BME280;57161;43.136;24.706;2024-03-23T07:56:15;99201.13;;;13.77;36.15
69879;BME280;57161;43.136;24.706;2024-03-23T07:58:41;99197.75;;;13.86;36.75
69879;BME280;57161;43.136;24.706;2024-03-23T08:01:12;99209.22;;;14.13;35.91
69879;BME280;57161;43.136;24.706;2024-03-23T08:03:40;99189.72;;;14.15;34.87
69879;BME280;57161;43.136;24.706;2024-03-23T08:06:13;99204.59;;;14.40;34.32
69879;BME280;57161;43.136;24.706;2024-03-23T08:08:40;99197.41;;;14.55;32.82
69879;BME280;57161;43.136;24.706;2024-03-23T08:11:06;99195.66;;;14.67;32.64
69879;BME280;57161;43.136;24.706;2024-03-23T08:13:32;99196.13;;;14.81;31.48
69879;BME280;57161;43.136;24.706;2024-03-23T08:15:59;99199.44;;;14.87;31.48
69879;BME280;57161;43.136;24.706;2024-03-23T08:18:25;99187.00;;;14.97;31.19
69879;BME280;57161;43.136;24.706;2024-03-23T08:21:01;99195.84;;;15.11;30.86
69879;BME280;57161;43.136;24.706;2024-03-23T08:23:30;99184.22;;;15.15;31.62
69879;BME280;57161;43.136;24.706;2024-03-23T08:25:58;99175.69;;;15.22;30.00
69879;BME280;57161;43.136;24.706;2024-03-23T08:28:24;99178.25;;;15.28;30.30
69879;BME280;57161;43.136;24.706;2024-03-23T08:30:49;99193.50;;;15.42;31.33
69879;BME280;57161;43.136;24.706;2024-03-23T08:33:15;99187.56;;;15.55;30.35
69879;BME280;57161;43.136;24.706;2024-03-23T08:35:41;99179.13;;;15.55;30.97
69879;BME280;57161;43.136;24.706;2024-03-23T08:38:07;99184.13;;;15.65;31.51
69879;BME280;57161;43.136;24.706;2024-03-23T08:40:32;99191.66;;;15.79;32.14
69879;BME280;57161;43.136;24.706;2024-03-23T08:42:58;99185.50;;;15.90;30.69
69879;BME280;57161;43.136;24.706;2024-03-23T08:45:25;99176.16;;;15.88;30.46
69879;BME280;57161;43.136;24.706;2024-03-23T08:47:51;99175.47;;;15.97;30.66
69879;BME280;57161;43.136;24.706;2024-03-23T08:50:16;99174.97;;;15.91;30.38
69879;BME280;57161;43.136;24.706;2024-03-23T08:52:41;99172.16;;;15.91;30.54
69879;BME280;57161;43.136;24.706;2024-03-23T08:55:07;99170.25;;;15.94;30.33
69879;BME280;57161;43.136;24.706;2024-03-23T08:57:34;99153.19;;;15.91;30.67
69879;BME280;57161;43.136;24.706;2024-03-23T08:59:59;99157.44;;;16.10;30.76
69879;BME280;57161;43.136;24.706;2024-03-23T09:02:24;99158.91;;;16.28;31.21
69879;BME280;57161;43.136;24.706;2024-03-23T09:04:50;99151.00;;;16.44;30.52
69879;BME280;57161;43.136;24.706;2024-03-23T09:07:15;99131.13;;;16.51;30.51
69879;BME280;57161;43.136;24.706;2024-03-23T09:09:41;99135.13;;;16.48;30.10
69879;BME280;57161;43.136;24.706;2024-03-23T09:12:07;99135.44;;;16.52;30.02
69879;BME280;57161;43.136;24.706;2024-03-23T09:14:35;99138.44;;;16.64;30.41
69879;BME280;57161;43.136;24.706;2024-03-23T09:17:01;99139.25;;;16.74;30.20
69879;BME280;57161;43.136;24.706;2024-03-23T09:19:28;99117.41;;;16.75;30.79
69879;BME280;57161;43.136;24.706;2024-03-23T09:21:54;99128.00;;;16.84;30.27
69879;BME280;57161;43.136;24.706;2024-03-23T09:24:19;99115.66;;;16.79;30.03
69879;BME280;57161;43.136;24.706;2024-03-23T09:26:44;99113.75;;;16.92;29.89
69879;BME280;57161;43.136;24.706;2024-03-23T09:29:10;99102.75;;;16.86;30.15
69879;BME280;57161;43.136;24.706;2024-03-23T09:31:35;99104.13;;;16.95;29.79
69879;BME280;57161;43.136;24.706;2024-03-23T09:34:03;99104.41;;;16.99;29.85
69879;BME280;57161;43.136;24.706;2024-03-23T09:36:28;99097.72;;;16.94;30.74
69879;BME280;57161;43.136;24.706;2024-03-23T09:38:54;99104.28;;;17.06;30.46
69879;BME280;57161;43.136;24.706;2024-03-23T09:41:20;99096.88;;;17.11;30.50
69879;BME280;57161;43.136;24.706;2024-03-23T09:43:45;99091.06;;;17.19;30.34
69879;BME280;57161;43.136;24.706;2024-03-23T09:46:14;99084.25;;;17.31;29.98
69879;BME280;57161;43.136;24.706;2024-03-23T09:48:39;99085.72;;;17.32;29.51
69879;BME280;57161;43.136;24.706;2024-03-23T09:51:06;99094.63;;;17.38;29.96
69879;BME280;57161;43.136;24.706;2024-03-23T09:53:34;99083.34;;;17.38;29.32
69879;BME280;57161;43.136;24.706;2024-03-23T09:56:00;99079.47;;;17.34;29.54
69879;BME280;57161;43.136;24.706;2024-03-23T09:58:26;99076.38;;;17.30;29.44
69879;BME280;57161;43.136;24.706;2024-03-23T10:00:51;99069.25;;;17.29;29.75
69879;BME280;57161;43.136;24.706;2024-03-23T10:03:16;99065.38;;;17.34;30.39
69879;BME280;57161;43.136;24.706;2024-03-23T10:05:42;99065.53;;;17.46;30.50
69879;BME280;57161;43.136;24.706;2024-03-23T10:10:43;99062.53;;;17.63;29.43
69879;BME280;57161;43.136;24.706;2024-03-23T10:13:09;99053.03;;;17.58;29.76
69879;BME280;57161;43.136;24.706;2024-03-23T10:15:36;99054.78;;;17.73;29.51
69879;BME280;57161;43.136;24.706;2024-03-23T10:18:20;99050.94;;;17.78;29.61
69879;BME280;57161;43.136;24.706;2024-03-23T10:23:35;99035.47;;;17.60;30.15
69879;BME280;57161;43.136;24.706;2024-03-23T10:26:23;99031.59;;;17.65;30.22
69879;BME280;57161;43.136;24.706;2024-03-23T10:28:58;99017.75;;;17.79;29.64
69879;BME280;57161;43.136;24.706;2024-03-23T10:31:27;99033.91;;;17.97;29.86
69879;BME280;57161;43.136;24.706;2024-03-23T10:33:53;99016.59;;;18.13;29.30
69879;BME280;57161;43.136;24.706;2024-03-23T10:36:20;99021.53;;;18.03;29.13
69879;BME280;57161;43.136;24.706;2024-03-23T10:38:46;99019.66;;;17.95;29.39
69879;BME280;57161;43.136;24.706;2024-03-23T10:41:12;98996.69;;;18.01;29.61
69879;BME280;57161;43.136;24.706;2024-03-23T10:43:39;98993.13;;;18.00;29.71
69879;BME280;57161;43.136;24.706;2024-03-23T10:46:05;98988.31;;;18.13;29.51
69879;BME280;57161;43.136;24.706;2024-03-23T10:48:33;98989.78;;;18.23;29.57
69879;BME280;57161;43.136;24.706;2024-03-23T10:50:59;99000.53;;;18.37;29.41
69879;BME280;57161;43.136;24.706;2024-03-23T10:53:26;98981.09;;;18.31;29.19
69879;BME280;57161;43.136;24.706;2024-03-23T10:55:52;98988.53;;;18.57;29.15
69879;BME280;57161;43.136;24.706;2024-03-23T10:58:24;98968.09;;;18.38;28.55
69879;BME280;57161;43.136;24.706;2024-03-23T11:00:52;98981.50;;;18.37;28.85
69879;BME280;57161;43.136;24.706;2024-03-23T11:03:35;98969.00;;;18.40;29.13
69879;BME280;57161;43.136;24.706;2024-03-23T11:06:07;98958.69;;;18.45;29.02
69879;BME280;57161;43.136;24.706;2024-03-23T11:08:39;98960.25;;;18.57;28.72
69879;BME280;57161;43.136;24.706;2024-03-23T11:11:18;98953.91;;;18.47;28.60
69879;BME280;57161;43.136;24.706;2024-03-23T11:13:53;98951.06;;;18.47;28.85
69879;BME280;57161;43.136;24.706;2024-03-23T11:16:24;98944.19;;;18.50;29.01
69879;BME280;57161;43.136;24.706;2024-03-23T11:18:50;98932.00;;;18.48;28.72
69879;BME280;57161;43.136;24.706;2024-03-23T11:21:53;98934.84;;;18.69;28.49
69879;BME280;57161;43.136;24.706;2024-03-23T11:24:20;98924.47;;;18.62;28.35
69879;BME280;57161;43.136;24.706;2024-03-23T11:26:46;98926.09;;;18.65;28.39
69879;BME280;57161;43.136;24.706;2024-03-23T11:29:16;98918.28;;;18.75;28.46
69879;BME280;57161;43.136;24.706;2024-03-23T11:31:53;98916.72;;;18.84;28.06
69879;BME280;57161;43.136;24.706;2024-03-23T11:34:19;98920.16;;;18.82;27.97
69879;BME280;57161;43.136;24.706;2024-03-23T11:36:46;98916.25;;;18.87;27.59
69879;BME280;57161;43.136;24.706;2024-03-23T11:39:19;98905.81;;;18.90;27.68
69879;BME280;57161;43.136;24.706;2024-03-23T11:41:56;98894.56;;;18.80;28.35
69879;BME280;57161;43.136;24.706;2024-03-23T11:44:24;98895.84;;;19.01;27.26
69879;BME280;57161;43.136;24.706;2024-03-23T11:46:51;98890.47;;;19.05;27.78
69879;BME280;57161;43.136;24.706;2024-03-23T11:49:29;98883.34;;;19.15;28.18
69879;BME280;57161;43.136;24.706;2024-03-23T11:51:56;98879.03;;;19.14;28.35
69879;BME280;57161;43.136;24.706;2024-03-23T11:54:26;98869.78;;;19.14;28.58
69879;BME280;57161;43.136;24.706;2024-03-23T11:56:56;98866.28;;;19.37;28.70
69879;BME280;57161;43.136;24.706;2024-03-23T11:59:41;98865.28;;;19.44;28.26
69879;BME280;57161;43.136;24.706;2024-03-23T12:02:08;98853.59;;;19.38;28.36
69879;BME280;57161;43.136;24.706;2024-03-23T12:04:35;98851.13;;;19.44;28.01
69879;BME280;57161;43.136;24.706;2024-03-23T12:07:17;98851.59;;;19.52;28.25
69879;BME280;57161;43.136;24.706;2024-03-23T12:10:02;98857.03;;;19.25;28.03
69879;BME280;57161;43.136;24.706;2024-03-23T12:12:28;98826.22;;;19.19;27.83
69879;BME280;57161;43.136;24.706;2024-03-23T12:15:03;98838.06;;;19.27;27.92
69879;BME280;57161;43.136;24.706;2024-03-23T12:17:30;98835.84;;;19.26;27.96
69879;BME280;57161;43.136;24.706;2024-03-23T12:19:56;98829.91;;;19.33;27.63
69879;BME280;57161;43.136;24.706;2024-03-23T12:22:22;98824.03;;;19.53;27.95
69879;BME280;57161;43.136;24.706;2024-03-23T12:24:48;98822.44;;;19.61;27.66
69879;BME280;57161;43.136;24.706;2024-03-23T12:27:14;98803.63;;;19.54;27.59
69879;BME280;57161;43.136;24.706;2024-03-23T12:29:40;98813.44;;;19.65;27.45
69879;BME280;57161;43.136;24.706;2024-03-23T12:32:07;98806.91;;;19.62;27.63
69879;BME280;57161;43.136;24.706;2024-03-23T12:34:32;98813.94;;;19.73;28.00
69879;BME280;57161;43.136;24.706;2024-03-23T12:36:58;98799.66;;;19.59;27.45
69879;BME280;57161;43.136;24.706;2024-03-23T12:39:24;98799.41;;;19.67;27.86
69879;BME280;57161;43.136;24.706;2024-03-23T12:41:50;98801.88;;;19.72;27.60
69879;BME280;57161;43.136;24.706;2024-03-23T12:44:15;98798.91;;;19.70;27.39
69879;BME280;57161;43.136;24.706;2024-03-23T12:46:41;98789.81;;;19.60;27.23
69879;BME280;57161;43.136;24.706;2024-03-23T12:49:07;98792.13;;;19.75;27.52
69879;BME280;57161;43.136;24.706;2024-03-23T12:51:33;98789.91;;;19.86;26.88
69879;BME280;57161;43.136;24.706;2024-03-23T12:53:59;98771.66;;;19.89;27.43
69879;BME280;57161;43.136;24.706;2024-03-23T12:56:24;98777.16;;;19.98;26.80
69879;BME280;57161;43.136;24.706;2024-03-23T12:58:50;98766.91;;;20.05;26.53
69879;BME280;57161;43.136;24.706;2024-03-23T13:01:20;98768.72;;;20.12;26.33
69879;BME280;57161;43.136;24.706;2024-03-23T13:03:50;98770.78;;;20.23;26.76
69879;BME280;57161;43.136;24.706;2024-03-23T13:06:17;98758.94;;;20.27;26.16
69879;BME280;57161;43.136;24.706;2024-03-23T13:08:46;98744.34;;;20.32;25.71
69879;BME280;57161;43.136;24.706;2024-03-23T13:11:12;98750.78;;;20.58;25.80
69879;BME280;57161;43.136;24.706;2024-03-23T13:13:38;98750.56;;;20.54;25.55
69879;BME280;57161;43.136;24.706;2024-03-23T13:16:05;98752.94;;;20.72;25.65
69879;BME280;57161;43.136;24.706;2024-03-23T13:18:31;98733.50;;;20.80;25.50
69879;BME280;57161;43.136;24.706;2024-03-23T13:20:58;98732.63;;;21.03;25.66
69879;BME280;57161;43.136;24.706;2024-03-23T13:23:23;98738.44;;;21.46;24.76
69879;BME280;57161;43.136;24.706;2024-03-23T13:25:52;98729.59;;;21.53;24.96
69879;BME280;57161;43.136;24.706;2024-03-23T13:28:22;98720.69;;;21.32;24.58
69879;BME280;57161;43.136;24.706;2024-03-23T13:30:54;98728.97;;;21.41;24.79
69879;BME280;57161;43.136;24.706;2024-03-23T13:33:20;98718.34;;;21.55;24.42
69879;BME280;57161;43.136;24.706;2024-03-23T13:35:52;98732.84;;;21.75;24.66
69879;BME280;57161;43.136;24.706;2024-03-23T13:38:18;98725.19;;;21.64;24.41
69879;BME280;57161;43.136;24.706;2024-03-23T13:40:53;98722.03;;;22.01;24.13
69879;BME280;57161;43.136;24.706;2024-03-23T13:43:19;98725.31;;;22.39;23.55
69879;BME280;57161;43.136;24.706;2024-03-23T13:45:47;98722.47;;;22.39;23.71
69879;BME280;57161;43.136;24.706;2024-03-23T13:48:14;98713.50;;;22.60;23.77
69879;BME280;57161;43.136;24.706;2024-03-23T13:50:40;98703.91;;;22.38;23.84
69879;BME280;57161;43.136;24.706;2024-03-23T13:53:05;98712.69;;;22.28;23.31